Terminal Aerodrome Forecast
Issued by NWS

Home | Current Version | Previous Version | Text Only | Print | Product List | Glossary On
Versions: 1 2 3 4 5 6 7 8 9 10 11 12 13 14 15
000
FTUS45 KRIW 282128 AAA
TAFBPI
TAF AMD
KBPI 282128Z 2821/2918 30010G20KT P6SM FEW100 SCT200
     FM290100 34007KT P6SM SKC
     FM291200 VRB04KT P6SM SCT120=

USA.gov is the U.S. government's official web portal to all federal, state and local government web resources and services.